Time;durP1;ratioP1;P1;durP2;ratioP2;P2;SDS_P1;SDS_P2;PMS_P1;PMS_P2;Temp;Humidity;BMP_temperature;BMP_pressure;BME280_temperature;BME280_humidity;BME280_pressure;Samples;Min_cycle;Max_cycle;Signal;HPM_P1;HPM_P2
2021/03/15 00:01:14;;;;;;;29.92;21.15;;;;;;;4.68;77.92;99733.71;1777920;79;22119;-70
2021/03/15 00:03:42;;;;;;;31.37;22.20;;;;;;;4.70;77.84;99744.88;1786981;79;21195;-71
2021/03/15 00:06:11;;;;;;;34.23;22.90;;;;;;;4.73;77.76;99749.38;1792366;79;21192;-70
2021/03/15 00:08:39;;;;;;;35.63;23.92;;;;;;;4.72;77.65;99744.62;1788386;79;21208;-71
2021/03/15 00:11:06;;;;;;;36.50;24.10;;;;;;;4.71;77.63;99748.31;1774297;79;21128;-71
2021/03/15 00:13:36;;;;;;;30.43;22.02;;;;;;;4.74;77.55;99747.84;1792146;79;21235;-70
2021/03/15 00:16:06;;;;;;;31.25;23.10;;;;;;;4.75;77.46;99740.70;1778859;79;21166;-71
2021/03/15 00:18:35;;;;;;;32.25;22.77;;;;;;;4.76;77.41;99739.12;1797113;79;21120;-70
2021/03/15 00:21:03;;;;;;;31.07;22.30;;;;;;;4.75;77.36;99736.20;1798682;77;21154;-71
2021/03/15 00:23:31;;;;;;;32.63;23.57;;;;;;;4.73;77.29;99729.02;1768987;80;21079;-70
2021/03/15 00:25:59;;;;;;;31.25;21.50;;;;;;;4.71;77.25;99725.83;1785506;79;21206;-70
2021/03/15 00:28:27;;;;;;;29.90;21.30;;;;;;;4.69;77.21;99721.28;1783078;79;21195;-70
2021/03/15 00:30:55;;;;;;;31.35;22.00;;;;;;;4.65;77.22;99728.90;1797175;79;22236;-71
2021/03/15 00:33:23;;;;;;;28.75;21.52;;;;;;;4.63;77.24;99732.81;1803041;79;21154;-71
2021/03/15 00:35:52;;;;;;;29.42;21.57;;;;;;;4.62;77.29;99733.86;1783893;79;21076;-71
2021/03/15 00:38:20;;;;;;;29.57;21.35;;;;;;;4.64;77.30;99730.44;1788432;79;21888;-69
2021/03/15 00:40:49;;;;;;;30.72;21.75;;;;;;;4.60;77.24;99732.76;1795655;79;21488;-70
2021/03/15 00:43:16;;;;;;;28.47;20.88;;;;;;;4.56;77.27;99740.89;1780444;79;21527;-70
2021/03/15 00:45:44;;;;;;;27.60;20.48;;;;;;;4.52;77.36;99733.69;1802451;77;21067;-70
2021/03/15 00:48:12;;;;;;;30.25;22.17;;;;;;;4.51;77.39;99736.02;1781564;79;21151;-71
2021/03/15 00:50:42;;;;;;;31.27;22.73;;;;;;;4.51;77.48;99742.14;1777951;79;21362;-71
2021/03/15 00:53:19;;;;;;;30.45;22.27;;;;;;;4.51;77.57;99739.50;1786757;79;21234;-70
2021/03/15 00:55:47;;;;;;;31.00;22.55;;;;;;;4.51;77.64;99743.47;1789366;79;21111;-70
2021/03/15 00:58:15;;;;;;;29.65;21.82;;;;;;;4.55;77.65;99746.44;1792277;79;21144;-70
2021/03/15 01:00:45;;;;;;;30.15;20.60;;;;;;;4.57;77.67;99746.98;1784188;78;21627;-70
2021/03/15 01:03:31;;;;;;;29.18;21.50;;;;;;;4.58;77.62;99747.28;1774159;79;22089;-70
2021/03/15 01:06:01;;;;;;;32.53;22.13;;;;;;;4.61;77.61;99747.61;1785756;79;21226;-70
2021/03/15 01:08:41;;;;;;;28.65;21.30;;;;;;;4.64;77.61;99742.34;1800175;79;21082;-71
2021/03/15 01:11:14;;;;;;;30.30;22.37;;;;;;;4.67;77.59;99749.31;1788083;79;21228;-70
2021/03/15 01:13:43;;;;;;;29.32;21.75;;;;;;;4.70;77.53;99740.91;1783287;79;21178;-70
2021/03/15 01:16:11;;;;;;;31.25;21.93;;;;;;;4.70;77.42;99740.91;1791717;79;21443;-71
2021/03/15 01:18:40;;;;;;;28.55;20.82;;;;;;;4.69;77.38;99743.77;1799473;79;21147;-71
2021/03/15 01:21:08;;;;;;;29.42;20.72;;;;;;;4.66;77.31;99743.72;1788365;79;21091;-70
2021/03/15 01:23:36;;;;;;;29.20;21.73;;;;;;;4.61;77.31;99742.32;1792637;79;21151;-71
2021/03/15 01:26:04;;;;;;;32.13;23.27;;;;;;;4.61;77.40;99738.88;1802691;79;21127;-70
2021/03/15 01:28:31;;;;;;;30.00;22.15;;;;;;;4.60;77.43;99735.41;1784823;79;21211;-70
2021/03/15 01:31:00;;;;;;;31.77;23.00;;;;;;;4.63;77.43;99735.45;1776862;79;21152;-70
2021/03/15 01:33:28;;;;;;;33.80;23.83;;;;;;;4.63;77.43;99734.13;1777191;79;21073;-71
2021/03/15 01:35:57;;;;;;;33.30;23.47;;;;;;;4.63;77.45;99726.20;1790710;79;21180;-70
2021/03/15 01:38:25;;;;;;;33.02;23.22;;;;;;;4.65;77.51;99722.28;1782037;79;21599;-70
2021/03/15 01:40:53;;;;;;;38.02;25.48;;;;;;;4.70;77.52;99729.00;1779301;79;21174;-70
2021/03/15 01:43:21;;;;;;;34.63;24.52;;;;;;;4.75;77.55;99726.16;1795204;79;21139;-71
2021/03/15 01:45:48;;;;;;;37.40;25.45;;;;;;;4.76;77.55;99718.48;1795533;79;21630;-70
2021/03/15 01:48:16;;;;;;;37.80;25.65;;;;;;;4.78;77.52;99723.03;1783761;79;21515;-70
2021/03/15 01:50:48;;;;;;;39.13;27.25;;;;;;;4.78;77.51;99720.38;1789269;79;21116;-70
2021/03/15 01:53:18;;;;;;;37.25;25.75;;;;;;;4.78;77.50;99721.70;1788629;79;21370;-71
2021/03/15 01:55:46;;;;;;;36.33;25.57;;;;;;;4.77;77.50;99719.59;1787892;79;21187;-70
2021/03/15 01:58:14;;;;;;;38.02;26.15;;;;;;;4.81;77.53;99715.41;1789054;79;21127;-70
2021/03/15 02:00:43;;;;;;;42.30;28.00;;;;;;;4.85;77.54;99721.83;1781749;79;21186;-69
2021/03/15 02:03:13;;;;;;;39.92;26.77;;;;;;;4.89;77.52;99716.85;1785073;79;21171;-71
2021/03/15 02:05:42;;;;;;;41.48;28.20;;;;;;;4.92;77.50;99715.85;1785354;79;21323;-70
2021/03/15 02:08:12;;;;;;;41.15;27.48;;;;;;;4.96;77.43;99718.02;1780621;79;21594;-70
2021/03/15 02:10:41;;;;;;;39.08;26.35;;;;;;;4.97;77.37;99720.44;1789199;79;21148;-71
2021/03/15 02:13:36;;;;;;;40.12;25.77;;;;;;;4.97;77.29;99723.09;1787201;79;21949;-71
2021/03/15 02:16:32;;;;;;;39.95;26.82;;;;;;;4.97;77.22;99717.80;1784433;79;21263;-70
2021/03/15 02:19:21;;;;;;;39.65;27.45;;;;;;;4.93;77.21;99720.09;1791145;79;21468;-71
2021/03/15 02:22:15;;;;;;;43.75;29.02;;;;;;;4.90;77.19;99721.92;1776106;79;21108;-71
2021/03/15 02:25:37;;;;;;;42.85;28.77;;;;;;;4.86;77.17;99723.95;1786740;79;21773;-70
2021/03/15 02:28:14;;;;;;;37.40;25.80;;;;;;;4.82;77.21;99734.20;1784119;79;21484;-71
2021/03/15 02:30:47;;;;;;;41.28;27.17;;;;;;;4.80;77.28;99746.06;1784447;79;21218;-72
2021/03/15 02:33:48;;;;;;;39.88;27.02;;;;;;;4.80;77.37;99748.19;1783200;79;21784;-70
2021/03/15 02:36:16;;;;;;;34.05;24.47;;;;;;;4.84;77.42;99744.56;1798306;79;21219;-70
2021/03/15 02:38:46;;;;;;;37.75;25.72;;;;;;;4.85;77.39;99741.67;1782597;78;21168;-70
2021/03/15 02:41:17;;;;;;;39.50;26.80;;;;;;;4.83;77.40;99742.41;1779070;79;21206;-70
2021/03/15 02:43:52;;;;;;;38.95;25.00;;;;;;;4.83;77.43;99741.09;1784370;78;21107;-69
2021/03/15 02:46:22;;;;;;;36.55;24.85;;;;;;;4.82;77.39;99739.50;1790028;79;22327;-71
2021/03/15 02:48:53;;;;;;;36.45;24.45;;;;;;;4.76;77.32;99733.04;1787789;79;21164;-70
2021/03/15 02:51:27;;;;;;;37.30;26.23;;;;;;;4.70;77.38;99733.46;1750377;81;21171;-71
2021/03/15 02:53:55;;;;;;;38.23;25.43;;;;;;;4.65;77.48;99734.71;1753559;80;21048;-70
2021/03/15 02:56:25;;;;;;;36.30;25.85;;;;;;;4.61;77.56;99729.09;1785340;79;21131;-71
2021/03/15 02:58:55;;;;;;;36.65;25.50;;;;;;;4.56;77.57;99734.81;1787340;79;21368;-70
2021/03/15 03:01:23;;;;;;;37.98;25.52;;;;;;;4.53;77.66;99725.50;1769539;79;21179;-72
2021/03/15 03:03:54;;;;;;;37.95;25.00;;;;;;;4.55;77.75;99725.28;1795063;78;21068;-71
2021/03/15 03:06:25;;;;;;;37.83;25.88;;;;;;;4.56;77.83;99719.73;1780162;79;21674;-71
2021/03/15 03:08:53;;;;;;;35.95;25.68;;;;;;;4.57;77.87;99721.86;1757466;80;21184;-70
2021/03/15 03:11:22;;;;;;;36.48;25.23;;;;;;;4.58;77.88;99716.88;1783869;79;21812;-70
2021/03/15 03:13:52;;;;;;;37.03;25.55;;;;;;;4.58;77.88;99715.55;1784622;79;21056;-70
2021/03/15 03:16:20;;;;;;;34.85;24.20;;;;;;;4.56;77.88;99720.27;1777285;79;21168;-70
2021/03/15 03:18:55;;;;;;;35.63;24.45;;;;;;;4.56;77.92;99719.73;1786455;79;21075;-70
2021/03/15 03:21:24;;;;;;;40.12;26.48;;;;;;;4.60;77.93;99714.77;1788413;79;21131;-71
2021/03/15 03:23:54;;;;;;;38.50;26.75;;;;;;;4.63;77.91;99719.59;1789950;79;21259;-71
2021/03/15 03:26:24;;;;;;;39.70;26.55;;;;;;;4.62;77.90;99721.95;1774343;79;21131;-70
2021/03/15 03:28:53;;;;;;;38.90;27.37;;;;;;;4.60;77.87;99722.18;1783607;79;21123;-71
2021/03/15 03:31:26;;;;;;;40.52;26.62;;;;;;;4.58;77.90;99718.19;1783899;79;21159;-70
2021/03/15 03:33:54;;;;;;;41.90;27.75;;;;;;;4.53;77.96;99712.80;1794608;79;21139;-71
2021/03/15 03:36:22;;;;;;;42.40;27.82;;;;;;;4.50;77.99;99715.91;1796557;79;21234;-70
2021/03/15 03:38:50;;;;;;;44.42;29.18;;;;;;;4.44;78.10;99719.81;1790321;79;21175;-70
2021/03/15 03:41:18;;;;;;;44.08;28.60;;;;;;;4.45;78.31;99719.28;1770600;79;21128;-71
2021/03/15 03:43:48;;;;;;;48.17;31.17;;;;;;;4.49;78.40;99724.90;1786897;79;21100;-70
2021/03/15 03:46:17;;;;;;;46.40;29.72;;;;;;;4.51;78.47;99724.13;1790850;78;21164;-70
2021/03/15 03:48:45;;;;;;;46.88;29.37;;;;;;;4.52;78.52;99720.46;1790109;79;21350;-70
2021/03/15 03:51:14;;;;;;;45.33;28.80;;;;;;;4.54;78.57;99722.33;1786562;79;21148;-70
2021/03/15 03:53:52;;;;;;;51.02;31.50;;;;;;;4.58;78.64;99728.25;1772725;79;21207;-70
2021/03/15 03:56:32;;;;;;;47.33;30.15;;;;;;;4.61;78.69;99737.56;1790092;79;21591;-70
2021/03/15 03:58:59;;;;;;;48.98;30.75;;;;;;;4.67;78.72;99739.23;1777049;79;21187;-71
2021/03/15 04:01:32;;;;;;;48.25;31.17;;;;;;;4.68;78.71;99744.30;1788290;79;21702;-70
2021/03/15 04:04:00;;;;;;;43.58;29.05;;;;;;;4.70;78.74;99748.02;1796861;79;21116;-71
2021/03/15 04:06:29;;;;;;;44.08;27.98;;;;;;;4.72;78.69;99745.14;1793858;79;21112;-70
2021/03/15 04:09:12;;;;;;;44.83;29.52;;;;;;;4.72;78.75;99749.91;1793152;79;21124;-70
2021/03/15 04:11:49;;;;;;;48.98;30.65;;;;;;;4.72;78.76;99744.62;1780736;79;21539;-69
2021/03/15 04:14:20;;;;;;;49.25;30.85;;;;;;;4.67;78.77;99745.34;1777020;79;22314;-70
2021/03/15 04:16:48;;;;;;;49.45;30.50;;;;;;;4.68;78.84;99744.81;1784214;79;21119;-71
2021/03/15 04:19:38;;;;;;;44.75;30.05;;;;;;;4.70;78.88;99747.52;1775086;79;21195;-71
2021/03/15 04:22:09;;;;;;;45.73;28.45;;;;;;;4.69;78.83;99747.21;1757481;79;21781;-71
2021/03/15 04:24:39;;;;;;;45.55;28.50;;;;;;;4.66;78.81;99745.04;1792085;79;21171;-71
2021/03/15 04:27:08;;;;;;;44.27;28.40;;;;;;;4.63;78.85;99742.06;1784469;78;22274;-71
2021/03/15 04:29:37;;;;;;;46.05;29.52;;;;;;;4.60;78.93;99742.02;1754730;79;21153;-71
2021/03/15 04:32:06;;;;;;;43.17;28.55;;;;;;;4.57;79.01;99742.48;1781820;79;21128;-70
2021/03/15 04:34:34;;;;;;;45.70;29.90;;;;;;;4.58;79.08;99738.03;1775433;79;21135;-70
2021/03/15 04:37:03;;;;;;;42.67;27.82;;;;;;;4.58;79.11;99744.64;1770881;79;21056;-70
2021/03/15 04:39:30;;;;;;;40.65;26.90;;;;;;;4.59;79.20;99747.56;1797278;79;22213;-69
2021/03/15 04:41:59;;;;;;;44.70;28.67;;;;;;;4.60;79.22;99745.98;1780413;79;21155;-70
2021/03/15 04:44:28;;;;;;;42.93;28.90;;;;;;;4.61;79.26;99749.45;1765631;79;21693;-71
2021/03/15 04:46:56;;;;;;;44.05;27.87;;;;;;;4.62;79.32;99756.34;1791571;79;21191;-71
2021/03/15 04:49:24;;;;;;;44.85;28.27;;;;;;;4.61;79.36;99754.22;1788226;79;21234;-72
2021/03/15 04:51:52;;;;;;;42.45;27.90;;;;;;;4.62;79.40;99761.11;1781564;79;21515;-70
2021/03/15 04:54:21;;;;;;;43.15;27.85;;;;;;;4.64;79.42;99756.89;1784510;79;21238;-70
2021/03/15 04:56:48;;;;;;;39.65;26.70;;;;;;;4.67;79.47;99761.22;1796879;79;21187;-71
2021/03/15 04:59:17;;;;;;;44.88;28.27;;;;;;;4.72;79.51;99769.75;1797984;79;21147;-71
2021/03/15 05:01:44;;;;;;;44.42;28.27;;;;;;;4.77;79.52;99772.99;1782356;79;21135;-71
2021/03/15 05:04:13;;;;;;;44.63;30.43;;;;;;;4.79;79.51;99773.05;1792199;79;21380;-70
2021/03/15 05:06:42;;;;;;;46.40;29.98;;;;;;;4.79;79.50;99770.40;1783295;79;21144;-71
2021/03/15 05:09:12;;;;;;;47.83;30.00;;;;;;;4.80;79.52;99774.64;1791452;79;21049;-71
2021/03/15 05:11:42;;;;;;;46.77;29.85;;;;;;;4.79;79.50;99777.02;1787236;79;21088;-71
2021/03/15 05:14:11;;;;;;;50.28;31.02;;;;;;;4.78;79.58;99775.42;1788796;79;21152;-71
2021/03/15 05:16:42;;;;;;;50.70;32.35;;;;;;;4.82;79.63;99773.89;1787411;79;22185;-70
2021/03/15 05:19:11;;;;;;;47.40;30.97;;;;;;;4.88;79.67;99768.17;1751218;80;21094;-70
2021/03/15 05:21:43;;;;;;;48.30;31.40;;;;;;;4.94;79.68;99769.35;1792253;79;21590;-71
2021/03/15 05:24:11;;;;;;;52.88;31.85;;;;;;;5.02;79.57;99768.67;1799420;79;21064;-71
2021/03/15 05:26:40;;;;;;;48.35;30.37;;;;;;;5.07;79.52;99770.09;1759497;77;21055;-70
2021/03/15 05:29:11;;;;;;;50.38;31.55;;;;;;;5.14;79.43;99773.37;1799603;77;21371;-70
2021/03/15 05:31:42;;;;;;;53.28;32.75;;;;;;;5.23;79.37;99772.44;1781167;79;21182;-70
2021/03/15 05:34:12;;;;;;;50.48;31.57;;;;;;;5.26;79.26;99776.73;1782391;79;21068;-69
2021/03/15 05:36:41;;;;;;;51.65;32.85;;;;;;;5.27;79.17;99779.68;1772162;79;21492;-70
2021/03/15 05:39:08;;;;;;;49.00;31.97;;;;;;;5.29;79.10;99787.37;1790324;79;21045;-70
2021/03/15 05:42:09;;;;;;;46.68;30.45;;;;;;;5.31;79.07;99789.27;1789620;79;21171;-70
2021/03/15 05:45:23;;;;;;;54.10;32.50;;;;;;;5.35;79.02;99787.73;1786321;79;21654;-70
2021/03/15 05:48:31;;;;;;;53.83;34.35;;;;;;;5.42;78.97;99791.02;1784061;79;21238;-69
2021/03/15 05:51:31;;;;;;;60.23;34.88;;;;;;;5.45;78.91;99789.21;1780885;79;21191;-71
2021/03/15 05:54:25;;;;;;;53.63;33.48;;;;;;;5.48;78.85;99787.93;1779769;79;21441;-70
2021/03/15 05:57:32;;;;;;;51.15;32.17;;;;;;;5.44;78.75;99793.44;1790631;79;21433;-70
2021/03/15 06:00:36;;;;;;;51.50;31.93;;;;;;;5.37;78.82;99801.02;1782656;79;21112;-70
2021/03/15 06:03:35;;;;;;;54.08;32.13;;;;;;;5.34;78.92;99804.14;1772315;79;21180;-70
2021/03/15 06:06:15;;;;;;;54.55;36.83;;;;;;;5.38;79.12;99801.29;1787896;77;38711;-69
2021/03/15 06:08:47;;;;;;;57.88;35.85;;;;;;;5.46;79.25;99808.02;1765155;79;21172;-71
2021/03/15 06:11:18;;;;;;;54.05;33.88;;;;;;;5.56;79.28;99810.02;1779152;80;21253;-69
2021/03/15 06:13:46;;;;;;;50.63;31.12;;;;;;;5.62;79.32;99807.73;1775844;80;21427;-70
2021/03/15 06:16:16;;;;;;;51.98;31.73;;;;;;;5.69;79.30;99810.22;1795029;79;21610;-71
2021/03/15 06:18:45;;;;;;;57.43;34.50;;;;;;;5.73;79.24;99804.20;1794086;79;21590;-70
2021/03/15 06:21:13;;;;;;;54.65;33.02;;;;;;;5.72;79.10;99807.88;1805207;79;21174;-71
2021/03/15 06:23:42;;;;;;;57.85;34.45;;;;;;;5.70;79.12;99813.97;1797928;79;21626;-70
2021/03/15 06:26:11;;;;;;;54.55;32.20;;;;;;;5.72;79.18;99821.13;1776439;79;21244;-70
2021/03/15 06:28:39;;;;;;;55.28;33.75;;;;;;;5.73;79.14;99814.80;1792966;79;21120;-70
2021/03/15 06:31:07;;;;;;;54.55;32.00;;;;;;;5.75;79.17;99821.97;1757306;79;21626;-71
2021/03/15 06:33:35;;;;;;;53.83;31.75;;;;;;;5.82;79.14;99819.98;1791393;79;21112;-70
2021/03/15 06:36:05;;;;;;;57.38;34.48;;;;;;;5.89;79.08;99815.83;1791262;79;21800;-70
2021/03/15 06:38:33;;;;;;;55.98;33.78;;;;;;;5.90;79.02;99811.33;1779595;79;21175;-71
2021/03/15 06:41:04;;;;;;;55.65;34.20;;;;;;;5.90;79.01;99805.50;1773842;79;21128;-70
2021/03/15 06:43:32;;;;;;;58.38;35.10;;;;;;;5.90;78.97;99807.35;1779677;79;21682;-70
2021/03/15 06:46:00;;;;;;;56.40;33.73;;;;;;;5.92;78.96;99814.52;1783485;78;21148;-71
2021/03/15 06:48:28;;;;;;;57.48;33.35;;;;;;;5.93;78.92;99813.52;1784449;78;21873;-71
2021/03/15 06:50:57;;;;;;;61.13;35.52;;;;;;;5.94;78.82;99817.77;1785744;78;21599;-69
2021/03/15 06:53:25;;;;;;;58.78;35.17;;;;;;;5.88;78.75;99814.20;1780305;79;21151;-72
2021/03/15 06:55:53;;;;;;;62.53;35.23;;;;;;;5.80;78.74;99813.31;1757114;79;21158;-70
2021/03/15 06:58:27;;;;;;;68.20;36.55;;;;;;;5.71;78.81;99826.16;1784174;78;21551;-71
2021/03/15 07:01:20;;;;;;;67.12;36.83;;;;;;;5.63;78.95;99815.98;1790272;79;21421;-71
2021/03/15 07:03:50;;;;;;;62.30;34.10;;;;;;;5.65;79.14;99820.50;1786295;79;21159;-71
2021/03/15 07:06:19;;;;;;;59.45;34.58;;;;;;;5.67;79.10;99824.25;1782184;79;21402;-71
2021/03/15 07:08:48;;;;;;;62.08;35.43;;;;;;;5.67;79.20;99820.27;1798455;79;21211;-71
2021/03/15 07:11:21;;;;;;;69.37;37.98;;;;;;;5.64;79.21;99812.28;1792998;78;21211;-70
2021/03/15 07:13:49;;;;;;;62.30;34.83;;;;;;;5.61;79.38;99804.81;1788244;79;21487;-71
2021/03/15 07:16:30;;;;;;;56.85;33.30;;;;;;;5.61;79.52;99802.97;1780729;79;21203;-69
2021/03/15 07:19:03;;;;;;;60.67;33.88;;;;;;;5.62;79.59;99801.11;1778032;79;21183;-71
2021/03/15 07:21:40;;;;;;;57.48;34.40;;;;;;;5.63;79.67;99805.39;1793951;79;21185;-71
2021/03/15 07:24:10;;;;;;;58.85;32.33;;;;;;;5.65;79.72;99809.91;1785423;79;21139;-71
2021/03/15 07:29:27;;;;;;;52.23;30.20;;;;;;;5.57;79.88;99804.50;1785375;77;22717;-71
2021/03/15 07:31:55;;;;;;;48.60;29.35;;;;;;;5.49;79.98;99804.89;1770928;79;21168;-71
2021/03/15 07:34:24;;;;;;;52.67;31.00;;;;;;;5.47;80.11;99803.55;1810447;77;21371;-70
2021/03/15 07:37:00;;;;;;;49.23;30.08;;;;;;;5.47;80.22;99803.02;1799130;77;21172;-70
2021/03/15 07:39:29;;;;;;;47.88;29.95;;;;;;;5.45;80.34;99799.01;1796533;77;21164;-71
2021/03/15 07:41:59;;;;;;;51.90;31.85;;;;;;;5.47;80.51;99799.58;1766534;79;21663;-72
2021/03/15 07:44:31;;;;;;;51.02;30.27;;;;;;;5.49;80.73;99801.45;1762149;79;21596;-71
2021/03/15 07:47:04;;;;;;;52.75;31.95;;;;;;;5.55;80.81;99809.75;1805573;77;21353;-70
2021/03/15 07:49:38;;;;;;;;;;;;;;;5.59;80.91;99812.19;1761588;80;21654;-71
2021/03/15 07:52:08;;;;;;;52.85;31.68;;;;;;;5.68;80.93;99813.92;1773885;79;20268;-71
2021/03/15 07:54:38;;;;;;;53.68;32.05;;;;;;;5.68;80.83;99816.57;1786979;77;21199;-71
2021/03/15 07:57:25;;;;;;;52.23;32.20;;;;;;;5.64;80.85;99822.35;1797894;77;21163;-70
2021/03/15 07:59:57;;;;;;;49.13;31.70;;;;;;;5.65;80.98;99825.80;1797311;79;22287;-71
2021/03/15 08:02:34;;;;;;;48.63;31.93;;;;;;;5.64;80.94;99823.67;1782514;77;21182;-73
2021/03/15 08:05:02;;;;;;;44.60;29.37;;;;;;;5.67;81.03;99817.63;1791145;77;21068;-75
2021/03/15 08:07:31;;;;;;;45.98;30.02;;;;;;;5.70;81.08;99817.94;1797743;77;21171;-70
2021/03/15 08:10:01;;;;;;;48.10;30.95;;;;;;;5.77;81.11;99808.50;1802774;77;21135;-71
2021/03/15 08:12:34;;;;;;;50.17;31.35;;;;;;;5.79;81.04;99805.89;1801489;77;21351;-71
2021/03/15 08:15:07;;;;;;;43.55;29.82;;;;;;;5.86;81.06;99812.34;1787976;77;21841;-71
2021/03/15 08:17:43;;;;;;;46.33;31.05;;;;;;;5.91;81.00;99803.64;1794769;77;21203;-71
2021/03/15 08:20:13;;;;;;;41.90;27.40;;;;;;;5.95;80.89;99802.13;1798897;79;21168;-71
2021/03/15 08:22:47;;;;;;;42.33;28.55;;;;;;;6.02;80.74;99802.75;1807649;79;21144;-71
2021/03/15 08:25:16;;;;;;;39.25;27.82;;;;;;;6.11;80.70;99798.11;1779432;79;22678;-71
2021/03/15 08:27:47;;;;;;;42.45;28.40;;;;;;;6.25;80.55;99795.09;1798785;77;21228;-70
2021/03/15 08:30:19;;;;;;;41.18;29.25;;;;;;;6.38;80.33;99795.25;1781468;79;21216;-74
2021/03/15 08:32:47;;;;;;;38.63;27.05;;;;;;;6.51;80.06;99789.56;1759974;79;21191;-71
2021/03/15 08:35:17;;;;;;;38.98;28.30;;;;;;;6.61;79.69;99790.20;1788702;78;21189;-72
2021/03/15 08:37:55;;;;;;;38.70;27.00;;;;;;;6.64;79.24;99786.52;1797279;78;21957;-72
2021/03/15 08:40:47;;;;;;;40.05;27.95;;;;;;;6.64;79.00;99791.82;1785510;77;21212;-75
2021/03/15 08:43:25;;;;;;;38.48;26.55;;;;;;;6.63;78.78;99797.39;1792613;78;21172;-73
2021/03/15 08:46:02;;;;;;;33.80;23.70;;;;;;;6.70;78.62;99794.02;1792474;77;22268;-71
2021/03/15 08:48:47;;;;;;;30.32;21.23;;;;;;;6.74;78.33;99787.15;1786328;77;21186;-72
2021/03/15 08:51:18;;;;;;;31.93;22.58;;;;;;;6.68;77.92;99790.80;1794939;77;21378;-73
2021/03/15 08:53:51;;;;;;;31.57;21.93;;;;;;;6.59;77.83;99790.45;1802134;78;21667;-71
2021/03/15 08:56:24;;;;;;;30.00;20.68;;;;;;;6.55;77.91;99783.52;1770799;79;21563;-72
2021/03/15 08:58:53;;;;;;;31.17;23.00;;;;;;;6.54;77.97;99785.88;1796413;77;21813;-71
2021/03/15 09:01:24;;;;;;;32.20;22.17;;;;;;;6.51;77.97;99783.72;1791852;79;21246;-74
2021/03/15 09:04:01;;;;;;;27.62;20.35;;;;;;;6.51;78.11;99783.72;1795179;77;21355;-71
2021/03/15 09:06:36;;;;;;;30.82;22.52;;;;;;;6.57;78.17;99779.28;1770058;79;21207;-72
2021/03/15 09:09:09;;;;;;;25.97;19.95;;;;;;;6.61;78.12;99776.40;1803680;79;21637;-72
2021/03/15 09:11:45;;;;;;;27.90;21.03;;;;;;;6.71;77.87;99770.39;1799984;79;21178;-72
2021/03/15 09:14:30;;;;;;;27.55;20.65;;;;;;;6.75;77.71;99781.61;1785211;79;21215;-72
2021/03/15 09:16:59;;;;;;;27.45;20.55;;;;;;;6.79;77.64;99768.10;1793869;77;21408;-74
2021/03/15 09:19:44;;;;;;;26.60;20.02;;;;;;;6.88;77.57;99774.27;1796184;79;21211;-72
2021/03/15 09:22:38;;;;;;;26.02;20.08;;;;;;;7.00;77.39;99781.56;1773871;79;21377;-73
2021/03/15 09:25:11;;;;;;;26.65;18.85;;;;;;;7.01;77.17;99775.22;1792097;77;21240;-71
2021/03/15 09:27:44;;;;;;;30.88;22.30;;;;;;;6.94;77.00;99775.92;1793638;77;21177;-71
2021/03/15 09:30:30;;;;;;;29.72;21.70;;;;;;;6.82;76.93;99776.09;1771538;79;21380;-71
2021/03/15 09:32:58;;;;;;;31.05;20.82;;;;;;;6.70;76.93;99781.55;1789982;79;21170;-71
2021/03/15 09:35:36;;;;;;;28.05;20.92;;;;;;;6.58;77.04;99785.68;1763996;79;21179;-71
2021/03/15 09:38:12;;;;;;;28.55;20.92;;;;;;;6.48;77.19;99790.88;1790632;77;21123;-70
2021/03/15 09:40:45;;;;;;;26.42;20.08;;;;;;;6.34;77.40;99790.44;1793877;79;21653;-70
2021/03/15 09:43:25;;;;;;;25.88;18.80;;;;;;;6.23;77.65;99801.19;1795023;77;21787;-71
2021/03/15 09:46:01;;;;;;;23.02;17.05;;;;;;;6.11;77.92;99802.09;1798269;77;21199;-69
2021/03/15 09:48:31;;;;;;;27.07;19.48;;;;;;;6.01;78.20;99805.94;1791629;77;21190;-71
2021/03/15 09:51:03;;;;;;;30.75;20.23;;;;;;;6.01;78.50;99818.39;1788393;77;21159;-70
2021/03/15 09:53:44;;;;;;;27.67;20.67;;;;;;;6.09;78.72;99816.66;1800249;79;23025;-70
2021/03/15 09:56:13;;;;;;;21.73;16.05;;;;;;;6.08;78.85;99810.53;1771659;79;21236;-71
2021/03/15 09:59:11;;;;;;;19.03;14.73;;;;;;;6.17;78.95;99815.42;1791028;78;23179;-70
2021/03/15 10:01:47;;;;;;;16.75;13.30;;;;;;;6.15;79.07;99812.20;1774362;80;21160;-70
2021/03/15 10:04:20;;;;;;;16.42;12.93;;;;;;;6.23;79.11;99811.79;1770797;78;21768;-70
2021/03/15 10:06:53;;;;;;;16.75;12.58;;;;;;;6.32;79.07;99803.69;1705828;78;21735;-69
2021/03/15 10:09:40;;;;;;;17.00;12.30;;;;;;;6.35;79.08;99805.84;1798282;78;22156;-71
2021/03/15 10:12:24;;;;;;;14.30;10.55;;;;;;;6.39;79.15;99803.50;1718332;78;21152;-70
2021/03/15 10:15:08;;;;;;;13.72;10.78;;;;;;;6.44;79.16;99806.20;1769036;78;21183;-70
2021/03/15 10:17:41;;;;;;;14.58;10.85;;;;;;;6.40;78.99;99809.08;1794818;78;21324;-71
2021/03/15 10:20:25;;;;;;;12.97;9.60;;;;;;;6.43;78.98;99805.93;1780122;79;22744;-70
2021/03/15 10:22:54;;;;;;;12.75;10.15;;;;;;;6.37;78.92;99806.91;1803522;79;21172;-69
2021/03/15 10:25:23;;;;;;;12.73;10.48;;;;;;;6.37;78.97;99798.43;1751271;79;21821;-70
2021/03/15 10:27:57;;;;;;;12.15;9.20;;;;;;;6.42;78.95;99801.69;1760764;79;21189;-70
2021/03/15 10:30:35;;;;;;;11.08;8.88;;;;;;;6.42;78.81;99799.03;1786736;79;21183;-71
2021/03/15 10:33:03;;;;;;;12.45;9.43;;;;;;;6.36;78.56;99799.48;1783029;79;21149;-71
2021/03/15 10:35:33;;;;;;;12.28;9.55;;;;;;;6.23;78.51;99804.63;1804838;77;21211;-70
2021/03/15 10:38:06;;;;;;;14.40;10.15;;;;;;;6.21;78.65;99800.09;1795190;77;21604;-70
2021/03/15 10:40:53;;;;;;;13.30;10.93;;;;;;;6.24;78.75;99803.58;1796016;77;28804;-70
2021/03/15 10:43:23;;;;;;;13.62;10.55;;;;;;;6.30;78.84;99797.29;1793510;79;21190;-69
2021/03/15 10:45:53;;;;;;;11.05;8.55;;;;;;;6.33;78.72;99783.53;1799240;77;21339;-71
2021/03/15 10:48:27;;;;;;;11.45;8.85;;;;;;;6.18;78.57;99778.05;1771885;79;21172;-70
2021/03/15 10:50:58;;;;;;;12.82;9.28;;;;;;;5.98;78.72;99775.14;1773235;79;21455;-70
2021/03/15 10:53:48;;;;;;;11.03;7.87;;;;;;;5.79;79.05;99780.72;1785953;77;21354;-70
2021/03/15 10:56:19;;;;;;;12.40;8.90;;;;;;;5.60;79.43;99774.08;1797784;79;21219;-70
2021/03/15 10:58:49;;;;;;;11.43;8.40;;;;;;;5.51;79.81;99764.94;1799353;77;22399;-71
2021/03/15 11:01:26;;;;;;;11.03;8.38;;;;;;;5.50;80.18;99762.81;1793238;79;21195;-70
2021/03/15 11:04:11;;;;;;;11.35;8.58;;;;;;;5.52;80.36;99764.67;1793945;79;21663;-70
2021/03/15 11:06:50;;;;;;;10.60;8.27;;;;;;;5.58;80.58;99766.36;1833388;76;22712;-68
2021/03/15 11:09:23;;;;;;;11.88;9.20;;;;;;;5.55;80.82;99762.08;1801387;77;21190;-70
2021/03/15 11:11:55;;;;;;;12.07;9.75;;;;;;;5.57;81.05;99762.12;1815776;77;22355;-70
2021/03/15 11:14:27;;;;;;;13.78;10.05;;;;;;;5.59;81.20;99762.69;1841388;76;21202;-71
2021/03/15 11:17:22;;;;;;;12.40;9.10;;;;;;;5.63;81.34;99761.15;1820716;77;21650;-71
2021/03/15 11:19:52;;;;;;;12.03;9.55;;;;;;;5.67;81.53;99756.69;1811530;78;21196;-70
2021/03/15 11:22:25;;;;;;;12.55;9.93;;;;;;;5.67;81.60;99757.48;1791057;77;21711;-71
2021/03/15 11:25:10;;;;;;;12.85;9.88;;;;;;;5.71;81.74;99748.52;1816355;77;21388;-71
2021/03/15 11:27:50;;;;;;;14.38;11.10;;;;;;;5.74;81.82;99741.41;1815321;77;21226;-71
2021/03/15 11:30:26;;;;;;;15.60;11.97;;;;;;;5.77;81.81;99761.59;1819784;77;21221;-71
2021/03/15 11:33:15;;;;;;;18.53;13.83;;;;;;;5.86;81.86;99758.81;1814298;76;23356;-72
2021/03/15 11:36:15;;;;;;;16.20;12.45;;;;;;;5.81;81.84;99757.41;1765979;80;21298;-71
2021/03/15 11:38:59;;;;;;;22.15;17.02;;;;;;;5.79;81.94;99758.19;1804016;78;21334;-72
2021/03/15 11:41:34;;;;;;;23.32;16.52;;;;;;;5.70;81.98;99757.53;1798128;79;21178;-71
2021/03/15 11:44:03;;;;;;;28.73;20.02;;;;;;;5.62;82.08;99764.02;1766372;79;22514;-70
2021/03/15 11:46:35;;;;;;;24.50;17.80;;;;;;;5.57;82.23;99766.09;1772447;79;21165;-72
2021/03/15 11:49:04;;;;;;;29.72;20.08;;;;;;;5.56;82.35;99768.47;1785808;78;21558;-72
2021/03/15 11:51:54;;;;;;;29.07;20.32;;;;;;;5.49;82.54;99774.43;1801109;79;21348;-72
2021/03/15 11:54:28;;;;;;;30.20;21.48;;;;;;;5.40;82.65;99770.61;1805894;77;21146;-71
2021/03/15 11:56:57;;;;;;;33.35;21.60;;;;;;;5.38;82.83;99772.16;1792752;77;21207;-72
2021/03/15 11:59:27;;;;;;;32.67;23.25;;;;;;;5.39;82.97;99779.58;1794128;77;21182;-71